الصفحة الرئيسية
METAR-TAF:

METAR-TAF

مطار :

كابري, إيطاليا

دائرة عرض: 40-33N, خط طول: 014-12E, ارتفاع: 160 متر

مراقبة الطقس الحالي

تاريخ ووقت الإصدار 3ساعات و 11 دقيقة قبل الساعة 17:55UTC
ريح 2 عقدة من الغرب
درجة الحرارة 19°درجة مئوية
الرطوبة 73%
ضغط 1019 hPa
الرؤية 10 كم أو أكثر
غيوم متفرقة على ارتفاع 2500 قدم

METAR: LIQC 291755Z 28002KT 9999 SCT025 19/14 Q1019 RMK BKN BKN070 BKN200 QUK 1 QUL 1 S VIS MAR 25 KM VIS MIN 9999

زمن: 23:06 (21:06 UTC)


TAF: مفقودة

أرصاد الطقس والتوقعات من أكثر من 4000 مطار (تقارير الطقس للمطار METAR والتنبؤ بالطقس بالمطارTAF).

المحطات المتاحة هي النقط الصفراء والحمراء على الخريطة.

حرك المؤشر فوق النقطة لمعرفة اسم المحطة.

ثم انقر لمعرفة أرصاد وتوقعات الطقس.

لتغيير الخارطة: اضغط على الأزرار الخضراء مع رمز الصليب الأسود للتكبير. على الزر الأخضر مع شرطة للتصغير، أو على الأسهم الخضراء للخرائط المجاورة.


METAR-TAF: